CYDP

Nain Airport

Nain, Canada
METAR CYDP 172000Z 29028G46KT 15SM DRSN OVC026 OVC110 M12/M16 A2944 RMK SC8AS1 AS TR SLP972
Observed Flight Rules
Dec-17 @ 20:00 UTC (an hour ago) Marginal Visual Flight Rules
Wind Visibility Clouds Conditions
290° at 28 knots
 Gusting to 46 knots
15 miles
  • Overcast at 2,600' AGL
  • Overcast at 11,000' AGL
  • Low drifting
  • Snow
Temperatures Readings
Current -12°C / 10°F
Dewpoint -16°C / 3°F
Humidity 72%
Altimeter 29.44" Hg
Pressure 997.2 hPa
Elevation 7
METAR CYDP 172000Z 29028G46KT 15SM DRSN OVC026 OVC110 M12/M16 A2944 RMK SC8AS1 AS TR SLP972
Observed Flight Rules
Dec-17 @ 20:00 UTC
(an hour ago)
MVFR
Wind Visibility
290° at 28 knots
 Gusting to 46 knots
15 miles
Clouds
  • Overcast at 2,600' AGL
  • Overcast at 11,000' AGL
Conditions
  • Low drifting
  • Snow
Temperature Dewpoint
-12°C / 10°F -16°C / 3°F
Humidity Altimeter Pressure
72% 29.44" Hg 997.2 hPa